createdAt,value
2022-10-20T00:01:57.133Z,12.93
2022-10-20T00:04:23.681Z,12.92
2022-10-20T00:06:50.136Z,12.93
2022-10-20T00:09:16.666Z,12.89
2022-10-20T00:11:45.821Z,12.96
2022-10-20T00:14:14.519Z,12.96
2022-10-20T00:16:40.971Z,13.03
2022-10-20T00:19:07.601Z,13.00
2022-10-20T00:21:34.640Z,13.00
2022-10-20T00:24:02.206Z,13.01
2022-10-20T00:26:30.697Z,13.04
2022-10-20T00:28:57.819Z,12.99
2022-10-20T00:31:25.239Z,13.01
2022-10-20T00:33:51.824Z,12.96
2022-10-20T00:36:20.604Z,12.94
2022-10-20T00:38:47.944Z,12.90
2022-10-20T00:41:21.984Z,12.82
2022-10-20T00:44:00.570Z,12.87
2022-10-20T00:46:36.717Z,12.92
2022-10-20T00:49:20.363Z,12.89
2022-10-20T00:51:50.912Z,12.88
2022-10-20T00:54:27.700Z,12.86
2022-10-20T00:56:59.804Z,12.93
2022-10-20T00:59:28.295Z,12.95
2022-10-20T01:01:55.954Z,12.93
2022-10-20T01:04:22.904Z,12.97
2022-10-20T01:06:49.452Z,12.99
2022-10-20T01:09:15.929Z,12.96
2022-10-20T01:11:59.903Z,12.94
2022-10-20T01:14:59.856Z,12.87
2022-10-20T01:18:02.756Z,12.83
2022-10-20T01:21:04.248Z,12.74
2022-10-20T01:23:55.474Z,12.71
2022-10-20T01:26:57.665Z,12.67
2022-10-20T01:29:35.951Z,12.64
2022-10-20T01:32:34.811Z,12.64
2022-10-20T01:35:14.434Z,12.64
2022-10-20T01:37:56.021Z,12.62
2022-10-20T01:40:31.306Z,12.70
2022-10-20T01:43:02.059Z,12.68
2022-10-20T01:45:32.536Z,12.68
2022-10-20T01:48:05.047Z,12.66
2022-10-20T01:50:34.842Z,12.67
2022-10-20T01:53:01.815Z,12.65
2022-10-20T01:55:28.396Z,12.64
2022-10-20T01:58:12.679Z,12.71
2022-10-20T02:00:42.471Z,12.68
2022-10-20T02:03:27.369Z,12.76
2022-10-20T02:06:24.518Z,12.79
2022-10-20T02:08:55.917Z,12.86
2022-10-20T02:11:26.687Z,12.91
2022-10-20T02:13:56.625Z,12.86
2022-10-20T02:16:34.433Z,12.80
2022-10-20T02:19:01.993Z,12.85
2022-10-20T02:21:28.697Z,12.82
2022-10-20T02:24:00.392Z,12.78
2022-10-20T02:26:27.097Z,12.78
2022-10-20T02:28:58.918Z,12.76
2022-10-20T02:31:25.682Z,12.74
2022-10-20T02:33:54.419Z,12.84
2022-10-20T02:36:26.669Z,12.78
2022-10-20T02:38:53.320Z,12.74
2022-10-20T02:41:19.783Z,12.79
2022-10-20T02:43:53.599Z,12.73
2022-10-20T02:46:23.825Z,12.74
2022-10-20T02:48:52.494Z,12.77
2022-10-20T02:51:18.970Z,12.79
2022-10-20T02:53:45.843Z,12.79
2022-10-20T02:59:53.179Z,12.69
2022-10-20T03:02:22.082Z,12.71
2022-10-20T03:04:48.438Z,12.74
2022-10-20T03:07:15.042Z,12.72
2022-10-20T03:09:44.300Z,12.72
2022-10-20T03:12:10.683Z,12.74
2022-10-20T03:14:37.225Z,12.74
2022-10-20T03:17:03.705Z,12.72
2022-10-20T03:19:30.116Z,12.69
2022-10-20T03:21:56.727Z,12.66
2022-10-20T03:24:23.205Z,12.62
2022-10-20T03:26:51.896Z,12.65
2022-10-20T03:29:18.501Z,12.58
2022-10-20T03:31:45.217Z,12.58
2022-10-20T03:34:12.740Z,12.59
2022-10-20T03:36:39.267Z,12.58
2022-10-20T03:39:05.785Z,12.58
2022-10-20T03:41:34.494Z,12.56
2022-10-20T03:44:00.918Z,12.57
2022-10-20T03:46:27.355Z,12.63
2022-10-20T03:48:53.827Z,12.69
2022-10-20T03:51:20.445Z,12.60
2022-10-20T03:53:51.521Z,12.67
2022-10-20T03:56:21.297Z,12.69
2022-10-20T03:58:48.447Z,12.66
2022-10-20T04:01:24.591Z,12.62
2022-10-20T04:03:54.245Z,12.63
2022-10-20T04:06:20.783Z,12.64
2022-10-20T04:08:49.316Z,12.62
2022-10-20T04:11:15.780Z,12.55
2022-10-20T04:13:42.261Z,12.60
2022-10-20T04:16:08.727Z,12.63
2022-10-20T04:18:35.169Z,12.59
2022-10-20T04:21:01.648Z,12.63
2022-10-20T04:23:28.121Z,12.71
2022-10-20T04:25:54.520Z,12.70
2022-10-20T04:28:21.345Z,12.67
2022-10-20T04:30:47.956Z,12.65
2022-10-20T04:33:14.767Z,12.70
2022-10-20T04:35:41.553Z,12.68
2022-10-20T04:38:08.171Z,12.68
2022-10-20T04:40:34.637Z,12.67
2022-10-20T04:43:01.722Z,12.64
2022-10-20T04:45:28.218Z,12.65
2022-10-20T04:47:54.662Z,12.69
2022-10-20T04:50:21.071Z,12.68
2022-10-20T04:52:47.551Z,12.70
2022-10-20T04:55:16.352Z,12.68
2022-10-20T04:57:45.068Z,12.71
2022-10-20T05:00:12.074Z,12.70
2022-10-20T05:02:40.576Z,12.68
2022-10-20T05:05:11.624Z,12.68
2022-10-20T05:07:40.381Z,12.63
2022-10-20T05:10:07.312Z,12.57
2022-10-20T05:12:34.175Z,12.57
2022-10-20T05:15:00.977Z,12.53
2022-10-20T05:17:29.942Z,12.42
2022-10-20T05:19:56.656Z,12.43
2022-10-20T05:22:23.049Z,12.39
2022-10-20T05:24:51.873Z,12.36
2022-10-20T05:27:18.205Z,12.31
2022-10-20T05:29:47.147Z,12.35
2022-10-20T05:32:13.599Z,12.29
2022-10-20T05:34:40.192Z,12.30
2022-10-20T05:37:06.956Z,12.17
2022-10-20T05:39:33.371Z,12.15
2022-10-20T05:41:59.734Z,12.11
2022-10-20T05:44:26.112Z,12.13
2022-10-20T05:46:52.526Z,12.16
2022-10-20T05:49:18.947Z,12.14
2022-10-20T05:51:46.777Z,12.10
2022-10-20T05:54:14.135Z,12.09
2022-10-20T05:56:40.653Z,12.12
2022-10-20T05:59:07.580Z,12.09
2022-10-20T06:01:48.150Z,12.07
2022-10-20T06:04:17.437Z,12.09
2022-10-20T06:06:44.176Z,12.08
2022-10-20T06:09:11.894Z,12.13
2022-10-20T06:11:39.700Z,12.10
2022-10-20T06:14:07.852Z,12.07
2022-10-20T06:16:34.776Z,12.08
2022-10-20T06:19:01.525Z,12.02
2022-10-20T06:21:32.401Z,12.07
2022-10-20T06:24:00.033Z,12.06
2022-10-20T06:26:33.048Z,12.10
2022-10-20T06:29:04.293Z,12.14
2022-10-20T06:31:34.966Z,12.17
2022-10-20T06:34:04.623Z,12.20
2022-10-20T06:36:31.050Z,12.22
2022-10-20T06:38:59.099Z,12.23
2022-10-20T06:41:26.906Z,12.26
2022-10-20T06:44:00.559Z,12.29
2022-10-20T06:46:28.839Z,12.31
2022-10-20T06:48:58.609Z,12.33
2022-10-20T06:51:26.082Z,12.36
2022-10-20T06:53:53.024Z,12.42
2022-10-20T06:56:22.889Z,12.47
2022-10-20T06:58:51.365Z,12.52
2022-10-20T07:01:26.044Z,12.57
2022-10-20T07:03:55.128Z,12.63
2022-10-20T07:06:25.315Z,12.66
2022-10-20T07:08:56.314Z,12.71
2022-10-20T07:11:30.484Z,12.77
2022-10-20T07:14:01.476Z,12.81
2022-10-20T07:16:32.480Z,12.89
2022-10-20T07:19:00.242Z,12.96
2022-10-20T07:21:32.345Z,13.01
2022-10-20T07:24:04.068Z,13.10
2022-10-20T07:26:33.284Z,13.16
2022-10-20T07:29:01.556Z,13.21
2022-10-20T07:31:37.051Z,13.25
2022-10-20T07:34:23.776Z,13.27
2022-10-20T07:36:51.142Z,13.32
2022-10-20T07:39:20.007Z,13.34
2022-10-20T07:41:47.904Z,13.37
2022-10-20T07:44:14.666Z,13.45
2022-10-20T07:46:41.202Z,13.50
2022-10-20T07:51:54.180Z,13.63
2022-10-20T07:54:20.575Z,13.67
2022-10-20T07:56:47.062Z,13.73
2022-10-20T07:59:14.548Z,13.79
2022-10-20T08:01:43.939Z,13.77
2022-10-20T08:04:10.952Z,13.80
2022-10-20T08:06:39.265Z,13.81
2022-10-20T08:09:06.420Z,13.87
2022-10-20T08:11:33.160Z,13.97
2022-10-20T08:13:59.643Z,14.09
2022-10-20T08:16:27.862Z,14.17
2022-10-20T08:21:40.405Z,14.26
2022-10-20T08:24:06.848Z,14.30
2022-10-20T08:26:33.280Z,14.35
2022-10-20T08:28:59.909Z,14.38
2022-10-20T08:31:26.316Z,14.35
2022-10-20T08:33:56.756Z,14.36
2022-10-20T08:36:23.354Z,14.51
2022-10-20T08:38:49.777Z,14.50
2022-10-20T08:41:38.780Z,14.61
2022-10-20T08:44:22.533Z,14.84
2022-10-20T08:46:49.605Z,14.89
2022-10-20T08:49:23.150Z,14.88
2022-10-20T08:51:49.817Z,14.88
2022-10-20T08:54:17.610Z,15.01
2022-10-20T08:56:47.314Z,15.04
2022-10-20T08:59:26.399Z,15.16
2022-10-20T09:01:54.406Z,15.17
2022-10-20T09:04:23.945Z,15.18
2022-10-20T09:06:59.287Z,15.15
2022-10-20T09:09:30.285Z,15.23
2022-10-20T09:12:05.266Z,15.21
2022-10-20T09:14:37.139Z,15.20
2022-10-20T09:17:06.912Z,15.37
2022-10-20T09:19:35.934Z,15.47
2022-10-20T09:22:06.992Z,15.55
2022-10-20T09:24:35.651Z,15.62
2022-10-20T09:27:22.576Z,15.72
2022-10-20T09:29:49.335Z,15.87
2022-10-20T09:32:55.502Z,15.98
2022-10-20T09:35:27.519Z,15.99
2022-10-20T09:37:58.676Z,16.11
2022-10-20T09:40:26.732Z,16.22
2022-10-20T09:43:00.101Z,16.02
2022-10-20T09:45:29.965Z,15.91
2022-10-20T09:48:03.888Z,15.87
2022-10-20T09:50:34.831Z,15.96
2022-10-20T09:53:07.325Z,16.02
2022-10-20T09:55:41.925Z,15.98
2022-10-20T09:58:21.625Z,16.08
2022-10-20T10:00:56.873Z,16.05
2022-10-20T10:03:24.201Z,16.10
2022-10-20T10:05:53.704Z,16.19
2022-10-20T10:08:22.299Z,16.28
2022-10-20T10:11:05.557Z,16.30
2022-10-20T10:13:42.824Z,16.31
2022-10-20T10:16:14.150Z,16.40
2022-10-20T10:18:45.441Z,16.46
2022-10-20T10:21:17.459Z,16.44
2022-10-20T10:23:51.186Z,16.64
2022-10-20T10:26:32.989Z,16.57
2022-10-20T10:28:59.477Z,16.57
2022-10-20T10:31:26.750Z,16.58
2022-10-20T10:34:22.744Z,16.68
2022-10-20T10:36:51.410Z,16.78
2022-10-20T10:39:17.853Z,16.95
2022-10-20T10:41:53.118Z,16.77
2022-10-20T10:44:33.570Z,16.76
2022-10-20T10:47:19.059Z,16.87
2022-10-20T10:50:16.540Z,16.82
2022-10-20T10:53:15.555Z,16.94
2022-10-20T10:55:56.641Z,17.09
2022-10-20T10:58:41.416Z,17.01
2022-10-20T11:01:50.133Z,17.09
2022-10-20T11:04:29.310Z,17.16
2022-10-20T11:06:58.704Z,17.10
2022-10-20T11:09:31.787Z,17.28
2022-10-20T11:12:08.944Z,17.26
2022-10-20T11:15:02.834Z,17.15
2022-10-20T11:17:42.690Z,17.12
2022-10-20T11:20:15.801Z,17.05
2022-10-20T11:23:07.136Z,17.01
2022-10-20T11:25:42.353Z,16.88
2022-10-20T11:28:31.752Z,16.90
2022-10-20T11:31:01.613Z,16.87
2022-10-20T11:33:39.289Z,16.77
2022-10-20T11:36:19.388Z,16.65
2022-10-20T11:38:54.991Z,16.55
2022-10-20T11:41:36.543Z,16.42
2022-10-20T11:44:36.604Z,16.40
2022-10-20T11:47:08.133Z,16.44
2022-10-20T11:49:34.758Z,16.43
2022-10-20T11:52:37.028Z,16.43
2022-10-20T11:55:20.877Z,16.40
2022-10-20T11:58:24.608Z,16.42
2022-10-20T12:00:59.961Z,16.47
2022-10-20T12:03:36.854Z,16.45
2022-10-20T12:06:15.342Z,16.43
2022-10-20T12:08:41.829Z,16.40
2022-10-20T12:11:30.098Z,16.43
2022-10-20T12:14:14.828Z,16.46
2022-10-20T12:16:53.750Z,16.29
2022-10-20T12:19:29.592Z,16.25
2022-10-20T12:22:26.740Z,16.17
2022-10-20T12:24:53.172Z,16.10
2022-10-20T12:27:25.233Z,16.06
2022-10-20T12:30:02.087Z,16.05
2022-10-20T12:32:28.487Z,16.00
2022-10-20T12:34:59.021Z,15.96
2022-10-20T12:37:29.445Z,16.03
2022-10-20T12:40:23.783Z,15.98
2022-10-20T12:42:53.593Z,15.99
2022-10-20T12:45:19.916Z,15.98
2022-10-20T12:47:54.962Z,15.97
2022-10-20T12:50:27.247Z,16.00
2022-10-20T12:52:54.316Z,16.02
2022-10-20T12:55:38.223Z,16.08
2022-10-20T12:58:26.766Z,16.15
2022-10-20T13:00:53.532Z,16.16
2022-10-20T13:03:32.184Z,16.17
2022-10-20T13:05:59.488Z,16.19
2022-10-20T13:08:29.861Z,16.17
2022-10-20T13:11:16.889Z,16.26
2022-10-20T13:13:55.115Z,16.25
2022-10-20T13:16:23.525Z,16.24
2022-10-20T13:18:53.219Z,16.25
2022-10-20T13:21:30.676Z,16.28
2022-10-20T13:24:14.299Z,16.23
2022-10-20T13:26:43.687Z,16.31
2022-10-20T13:29:33.129Z,16.26
2022-10-20T13:32:14.849Z,16.27
2022-10-20T13:34:45.416Z,16.24
2022-10-20T13:37:31.153Z,16.28
2022-10-20T13:40:18.921Z,16.21
2022-10-20T13:43:07.529Z,16.22
2022-10-20T13:45:49.146Z,16.24
2022-10-20T13:48:39.867Z,16.25
2022-10-20T13:51:18.415Z,16.24
2022-10-20T13:53:50.503Z,16.19
2022-10-20T13:56:16.834Z,16.14
2022-10-20T13:59:18.414Z,16.10
2022-10-20T14:01:50.961Z,16.09
2022-10-20T14:04:35.308Z,16.07
2022-10-20T14:07:05.126Z,16.07
2022-10-20T14:09:37.912Z,16.08
2022-10-20T14:12:17.099Z,16.11
2022-10-20T14:14:45.027Z,16.09
2022-10-20T14:17:22.892Z,16.12
2022-10-20T14:19:52.722Z,16.08
2022-10-20T14:22:25.383Z,16.06
2022-10-20T14:24:57.280Z,16.00
2022-10-20T14:27:28.131Z,16.02
2022-10-20T14:29:56.564Z,15.96
2022-10-20T14:32:26.558Z,15.94
2022-10-20T14:35:16.493Z,15.92
2022-10-20T14:37:53.384Z,15.91
2022-10-20T14:40:19.850Z,15.90
2022-10-20T14:42:46.959Z,15.89
2022-10-20T14:45:25.886Z,15.93
2022-10-20T14:47:54.354Z,15.92
2022-10-20T14:50:42.096Z,15.92
2022-10-20T14:53:25.425Z,15.92
2022-10-20T14:55:54.210Z,15.88
2022-10-20T14:59:01.975Z,15.91
2022-10-20T15:01:32.472Z,15.91
2022-10-20T15:04:11.049Z,15.89
2022-10-20T15:06:37.887Z,15.89
2022-10-20T15:09:04.788Z,15.88
2022-10-20T15:11:36.101Z,15.86
2022-10-20T15:14:02.540Z,15.87
2022-10-20T15:16:39.689Z,15.89
2022-10-20T15:19:29.185Z,15.89
2022-10-20T15:22:02.413Z,15.88
2022-10-20T15:24:29.159Z,15.86
2022-10-20T15:26:57.011Z,15.83
2022-10-20T15:29:24.092Z,15.83
2022-10-20T15:31:50.532Z,15.80
2022-10-20T15:34:19.489Z,15.79
2022-10-20T15:36:47.619Z,15.76
2022-10-20T15:39:16.804Z,15.79
2022-10-20T15:41:47.107Z,15.75
2022-10-20T15:44:22.025Z,15.75
2022-10-20T15:46:52.252Z,15.74
2022-10-20T15:49:19.074Z,15.73
2022-10-20T15:51:47.200Z,15.71
2022-10-20T15:54:16.278Z,15.67
2022-10-20T15:56:42.922Z,15.64
2022-10-20T15:59:09.329Z,15.61
2022-10-20T16:01:36.230Z,15.56
2022-10-20T16:04:16.586Z,15.54
2022-10-20T16:06:43.770Z,15.50
2022-10-20T16:09:15.772Z,15.45
2022-10-20T16:11:43.177Z,15.42
2022-10-20T16:14:09.798Z,15.40
2022-10-20T16:16:36.257Z,15.36
2022-10-20T16:19:02.900Z,15.32
2022-10-20T16:21:29.470Z,15.27
2022-10-20T16:23:55.979Z,15.25
2022-10-20T16:26:22.438Z,15.24
2022-10-20T16:28:49.053Z,15.24
2022-10-20T16:31:16.547Z,15.20
2022-10-20T16:33:43.405Z,15.17
2022-10-20T16:36:11.968Z,15.19
2022-10-20T16:38:40.881Z,15.15
2022-10-20T16:41:13.190Z,15.11
2022-10-20T16:43:48.027Z,14.98
2022-10-20T16:46:15.255Z,15.01
2022-10-20T16:48:42.822Z,14.94
2022-10-20T16:51:15.152Z,14.87
2022-10-20T16:53:41.664Z,14.84
2022-10-20T16:56:08.308Z,14.81
2022-10-20T16:58:35.545Z,14.78
2022-10-20T17:01:06.314Z,14.77
2022-10-20T17:03:35.572Z,14.77
2022-10-20T17:06:06.551Z,14.75
2022-10-20T17:08:34.661Z,14.76
2022-10-20T17:11:04.019Z,14.78
2022-10-20T17:13:31.283Z,14.81
2022-10-20T17:16:04.529Z,14.82
2022-10-20T17:18:30.923Z,14.80
2022-10-20T17:20:59.929Z,14.81
2022-10-20T17:23:26.603Z,14.76
2022-10-20T17:25:58.065Z,14.78
2022-10-20T17:28:24.408Z,14.77
2022-10-20T17:30:53.030Z,14.81
2022-10-20T17:33:19.380Z,14.76
2022-10-20T17:35:49.047Z,14.69
2022-10-20T17:38:15.527Z,14.64
2022-10-20T17:40:41.967Z,14.60
2022-10-20T17:43:08.362Z,14.56
2022-10-20T17:45:38.194Z,14.52
2022-10-20T17:48:05.358Z,14.54
2022-10-20T17:50:34.233Z,14.56
2022-10-20T17:53:01.389Z,14.56
2022-10-20T17:55:32.872Z,14.52
2022-10-20T17:58:06.436Z,14.51
2022-10-20T18:00:54.755Z,14.51
2022-10-20T18:03:19.203Z,14.50
2022-10-20T18:05:45.576Z,14.43
2022-10-20T18:08:11.948Z,14.42
2022-10-20T18:10:44.682Z,14.41
2022-10-20T18:13:11.098Z,14.42
2022-10-20T18:15:42.828Z,14.41
2022-10-20T18:18:12.341Z,14.41
2022-10-20T18:20:38.683Z,14.41
2022-10-20T18:23:07.402Z,14.40
2022-10-20T18:25:35.549Z,14.41
2022-10-20T18:28:01.976Z,14.39
2022-10-20T18:30:28.404Z,14.40
2022-10-20T18:32:54.938Z,14.34
2022-10-20T18:35:23.439Z,14.29
2022-10-20T18:37:56.014Z,14.30
2022-10-20T18:40:24.695Z,14.33
2022-10-20T18:42:53.526Z,14.37
2022-10-20T18:45:22.643Z,14.34
2022-10-20T18:47:51.723Z,14.34
2022-10-20T18:50:18.266Z,14.35
2022-10-20T18:52:47.212Z,14.34
2022-10-20T18:55:13.635Z,14.36
2022-10-20T18:57:40.298Z,14.36
2022-10-20T19:00:08.658Z,14.36
2022-10-20T19:02:35.503Z,14.36
2022-10-20T19:05:03.228Z,14.35
2022-10-20T19:07:32.502Z,14.36
2022-10-20T19:09:59.025Z,14.37
2022-10-20T19:12:25.446Z,14.37
2022-10-20T19:14:52.409Z,14.36
2022-10-20T19:17:18.789Z,14.35
2022-10-20T19:19:46.485Z,14.37
2022-10-20T19:22:12.905Z,14.33
2022-10-20T19:24:40.611Z,14.34
2022-10-20T19:27:25.595Z,14.36
2022-10-20T19:29:56.035Z,14.34
2022-10-20T19:32:22.485Z,14.32
2022-10-20T19:34:48.910Z,14.36
2022-10-20T19:37:15.333Z,14.40
2022-10-20T19:39:42.366Z,14.42
2022-10-20T19:42:10.363Z,14.42
2022-10-20T19:44:37.269Z,14.48
2022-10-20T19:47:04.949Z,14.49
2022-10-20T19:49:31.567Z,14.46
2022-10-20T19:51:58.756Z,14.48
2022-10-20T19:54:27.065Z,14.52
2022-10-20T19:56:53.518Z,14.52
2022-10-20T19:59:22.424Z,14.51
2022-10-20T20:01:54.149Z,14.47
2022-10-20T20:04:25.581Z,14.49
2022-10-20T20:06:51.975Z,14.50
2022-10-20T20:09:18.537Z,14.53
2022-10-20T20:11:44.965Z,14.56
2022-10-20T20:14:29.152Z,14.59
2022-10-20T20:16:56.028Z,14.63
2022-10-20T20:19:22.420Z,14.66
2022-10-20T20:21:48.819Z,14.71
2022-10-20T20:24:15.279Z,14.68
2022-10-20T20:26:42.163Z,14.73
2022-10-20T20:29:09.682Z,14.68
2022-10-20T20:31:36.116Z,14.66
2022-10-20T20:34:02.548Z,14.64
2022-10-20T20:36:29.097Z,14.68
2022-10-20T20:38:59.444Z,14.66
2022-10-20T20:41:28.165Z,14.68
2022-10-20T20:43:54.577Z,14.73
2022-10-20T20:46:23.641Z,14.74
2022-10-20T20:48:53.341Z,14.71
2022-10-20T20:51:25.217Z,14.70
2022-10-20T20:53:51.628Z,14.68
2022-10-20T20:56:21.669Z,14.67
2022-10-20T20:58:50.445Z,14.65
2022-10-20T21:01:18.706Z,14.66
2022-10-20T21:03:45.923Z,14.63
2022-10-20T21:06:17.505Z,14.64
2022-10-20T21:08:50.084Z,14.63
2022-10-20T21:11:23.098Z,14.60
2022-10-20T21:13:51.330Z,14.59
2022-10-20T21:16:28.273Z,14.59
2022-10-20T21:18:58.142Z,14.64
2022-10-20T21:21:38.879Z,14.67
2022-10-20T21:24:06.520Z,14.70
2022-10-20T21:26:35.019Z,14.74
2022-10-20T21:29:06.650Z,14.79
2022-10-20T21:31:33.082Z,14.79
2022-10-20T21:34:04.797Z,14.80
2022-10-20T21:36:34.643Z,14.82
2022-10-20T21:39:02.348Z,14.84
2022-10-20T21:41:32.295Z,14.85
2022-10-20T21:44:03.597Z,14.85
2022-10-20T21:46:35.902Z,14.86
2022-10-20T21:49:07.913Z,14.89
2022-10-20T21:51:36.133Z,14.90
2022-10-20T21:54:08.188Z,14.91
2022-10-20T21:56:36.335Z,14.92
2022-10-20T21:59:06.402Z,14.93
2022-10-20T22:01:35.226Z,14.95
2022-10-20T22:04:02.003Z,14.95
2022-10-20T22:06:31.054Z,14.95
2022-10-20T22:09:03.679Z,14.92
2022-10-20T22:11:33.559Z,14.93
2022-10-20T22:14:00.500Z,14.92
2022-10-20T22:16:30.325Z,14.94
2022-10-20T22:19:21.191Z,14.95
2022-10-20T22:21:49.897Z,14.97
2022-10-20T22:24:18.511Z,14.97
2022-10-20T22:26:44.994Z,14.97
2022-10-20T22:29:11.415Z,14.98
2022-10-20T22:31:39.626Z,14.94
2022-10-20T22:34:06.618Z,14.97
2022-10-20T22:36:33.090Z,14.98
2022-10-20T22:39:02.296Z,14.97
2022-10-20T22:41:28.755Z,14.98
2022-10-20T22:43:55.183Z,14.96
2022-10-20T22:46:21.609Z,14.96
2022-10-20T22:48:48.078Z,15.00
2022-10-20T22:51:15.614Z,14.99
2022-10-20T22:53:45.155Z,15.07
2022-10-20T22:56:20.698Z,15.08
2022-10-20T22:58:52.812Z,15.09
2022-10-20T23:01:22.395Z,15.13
2022-10-20T23:03:49.307Z,15.10
2022-10-20T23:06:22.043Z,15.13
2022-10-20T23:08:53.828Z,15.15
2022-10-20T23:11:21.007Z,15.16
2022-10-20T23:13:47.993Z,15.16
2022-10-20T23:16:14.656Z,15.15
2022-10-20T23:18:46.109Z,15.13
2022-10-20T23:21:13.767Z,15.11
2022-10-20T23:23:40.855Z,15.09
2022-10-20T23:26:10.674Z,15.11
2022-10-20T23:28:38.619Z,15.14
2022-10-20T23:31:19.288Z,15.13
2022-10-20T23:33:47.234Z,15.05
2022-10-20T23:36:17.379Z,14.96
2022-10-20T23:38:47.513Z,14.98
2022-10-20T23:41:14.620Z,14.91
2022-10-20T23:43:41.147Z,14.91
2022-10-20T23:46:07.893Z,14.89
2022-10-20T23:48:34.923Z,14.87
2022-10-20T23:51:04.049Z,14.86
2022-10-20T23:53:30.833Z,14.81
2022-10-20T23:55:59.531Z,14.75
2022-10-20T23:58:28.772Z,14.66
